sensor_id;sensor_type;location;lat;lon;timestamp;P1;durP1;ratioP1;P2;durP2;ratioP2
34353;SDS011;20618;0.000;0.000;2023-12-14T00:00:33;14.43;;;3.58;;
34353;SDS011;20618;0.000;0.000;2023-12-14T00:02:59;11.85;;;4.15;;
34353;SDS011;20618;0.000;0.000;2023-12-14T00:05:26;10.73;;;3.60;;
34353;SDS011;20618;0.000;0.000;2023-12-14T00:07:52;13.93;;;4.45;;
34353;SDS011;20618;0.000;0.000;2023-12-14T00:10:19;12.02;;;4.35;;
34353;SDS011;20618;0.000;0.000;2023-12-14T00:12:46;12.38;;;4.05;;
34353;SDS011;20618;0.000;0.000;2023-12-14T00:15:14;9.02;;;3.80;;
34353;SDS011;20618;0.000;0.000;2023-12-14T00:17:40;14.15;;;3.97;;
34353;SDS011;20618;0.000;0.000;2023-12-14T00:20:06;12.95;;;5.03;;
34353;SDS011;20618;0.000;0.000;2023-12-14T00:22:33;12.27;;;4.22;;
34353;SDS011;20618;0.000;0.000;2023-12-14T00:24:59;12.50;;;3.78;;
34353;SDS011;20618;0.000;0.000;2023-12-14T00:27:25;10.70;;;4.15;;
34353;SDS011;20618;0.000;0.000;2023-12-14T00:29:51;11.85;;;3.67;;
34353;SDS011;20618;0.000;0.000;2023-12-14T00:32:17;13.15;;;4.22;;
34353;SDS011;20618;0.000;0.000;2023-12-14T00:34:44;10.05;;;4.00;;
34353;SDS011;20618;0.000;0.000;2023-12-14T00:37:10;10.45;;;3.75;;
34353;SDS011;20618;0.000;0.000;2023-12-14T00:39:36;7.75;;;3.40;;
34353;SDS011;20618;0.000;0.000;2023-12-14T00:42:02;11.40;;;3.60;;
34353;SDS011;20618;0.000;0.000;2023-12-14T00:44:29;10.95;;;3.83;;
34353;SDS011;20618;0.000;0.000;2023-12-14T00:46:55;11.30;;;4.22;;
34353;SDS011;20618;0.000;0.000;2023-12-14T00:49:23;11.80;;;4.30;;
34353;SDS011;20618;0.000;0.000;2023-12-14T00:51:49;13.70;;;3.97;;
34353;SDS011;20618;0.000;0.000;2023-12-14T00:54:15;8.82;;;3.78;;
34353;SDS011;20618;0.000;0.000;2023-12-14T00:56:42;12.52;;;4.38;;
34353;SDS011;20618;0.000;0.000;2023-12-14T00:59:08;13.20;;;4.35;;
34353;SDS011;20618;0.000;0.000;2023-12-14T01:01:34;10.07;;;3.53;;
34353;SDS011;20618;0.000;0.000;2023-12-14T01:04:00;9.45;;;4.18;;
34353;SDS011;20618;0.000;0.000;2023-12-14T01:06:26;12.43;;;3.80;;
34353;SDS011;20618;0.000;0.000;2023-12-14T01:08:52;9.55;;;3.88;;
34353;SDS011;20618;0.000;0.000;2023-12-14T01:11:19;9.23;;;3.70;;
34353;SDS011;20618;0.000;0.000;2023-12-14T01:13:45;11.15;;;3.85;;
34353;SDS011;20618;0.000;0.000;2023-12-14T01:16:11;12.20;;;3.55;;
34353;SDS011;20618;0.000;0.000;2023-12-14T01:18:38;10.13;;;3.88;;
34353;SDS011;20618;0.000;0.000;2023-12-14T01:21:04;12.85;;;4.05;;
34353;SDS011;20618;0.000;0.000;2023-12-14T01:23:31;8.70;;;3.70;;
34353;SDS011;20618;0.000;0.000;2023-12-14T01:25:57;13.52;;;3.85;;
34353;SDS011;20618;0.000;0.000;2023-12-14T01:28:23;9.00;;;3.97;;
34353;SDS011;20618;0.000;0.000;2023-12-14T01:30:49;10.07;;;3.97;;
34353;SDS011;20618;0.000;0.000;2023-12-14T01:33:15;8.82;;;3.90;;
34353;SDS011;20618;0.000;0.000;2023-12-14T01:35:41;8.90;;;3.22;;
34353;SDS011;20618;0.000;0.000;2023-12-14T01:38:08;10.23;;;3.97;;
34353;SDS011;20618;0.000;0.000;2023-12-14T01:40:34;8.50;;;3.45;;
34353;SDS011;20618;0.000;0.000;2023-12-14T01:43:07;9.63;;;3.58;;
34353;SDS011;20618;0.000;0.000;2023-12-14T01:45:34;8.50;;;3.42;;
34353;SDS011;20618;0.000;0.000;2023-12-14T01:48:00;8.43;;;3.35;;
34353;SDS011;20618;0.000;0.000;2023-12-14T01:50:26;9.13;;;3.65;;
34353;SDS011;20618;0.000;0.000;2023-12-14T01:52:52;7.30;;;3.22;;
34353;SDS011;20618;0.000;0.000;2023-12-14T01:55:18;8.15;;;4.05;;
34353;SDS011;20618;0.000;0.000;2023-12-14T01:57:45;9.80;;;3.42;;
34353;SDS011;20618;0.000;0.000;2023-12-14T02:00:13;9.80;;;3.60;;
34353;SDS011;20618;0.000;0.000;2023-12-14T02:02:45;7.93;;;2.90;;
34353;SDS011;20618;0.000;0.000;2023-12-14T02:05:11;8.18;;;3.15;;
34353;SDS011;20618;0.000;0.000;2023-12-14T02:07:38;10.45;;;3.67;;
34353;SDS011;20618;0.000;0.000;2023-12-14T02:10:04;7.72;;;3.42;;
34353;SDS011;20618;0.000;0.000;2023-12-14T02:12:30;11.10;;;3.88;;
34353;SDS011;20618;0.000;0.000;2023-12-14T02:14:59;7.80;;;3.45;;
34353;SDS011;20618;0.000;0.000;2023-12-14T02:17:25;8.80;;;3.53;;
34353;SDS011;20618;0.000;0.000;2023-12-14T02:19:51;11.05;;;3.80;;
34353;SDS011;20618;0.000;0.000;2023-12-14T02:22:17;9.68;;;3.40;;
34353;SDS011;20618;0.000;0.000;2023-12-14T02:24:44;7.78;;;3.33;;
34353;SDS011;20618;0.000;0.000;2023-12-14T02:27:10;7.18;;;3.10;;
34353;SDS011;20618;0.000;0.000;2023-12-14T02:29:36;6.60;;;2.97;;
34353;SDS011;20618;0.000;0.000;2023-12-14T02:32:02;10.45;;;3.38;;
34353;SDS011;20618;0.000;0.000;2023-12-14T02:34:28;7.55;;;3.25;;
34353;SDS011;20618;0.000;0.000;2023-12-14T02:36:54;10.15;;;3.60;;
34353;SDS011;20618;0.000;0.000;2023-12-14T02:39:21;8.55;;;3.10;;
34353;SDS011;20618;0.000;0.000;2023-12-14T02:41:47;11.73;;;3.30;;
34353;SDS011;20618;0.000;0.000;2023-12-14T02:44:13;8.60;;;3.45;;
34353;SDS011;20618;0.000;0.000;2023-12-14T02:46:39;8.57;;;3.47;;
34353;SDS011;20618;0.000;0.000;2023-12-14T02:49:05;9.07;;;3.00;;
34353;SDS011;20618;0.000;0.000;2023-12-14T02:51:31;7.20;;;3.47;;
34353;SDS011;20618;0.000;0.000;2023-12-14T02:53:58;8.63;;;3.38;;
34353;SDS011;20618;0.000;0.000;2023-12-14T02:56:24;6.88;;;3.03;;
34353;SDS011;20618;0.000;0.000;2023-12-14T02:58:50;7.63;;;3.35;;
34353;SDS011;20618;0.000;0.000;2023-12-14T03:01:19;6.13;;;2.92;;
34353;SDS011;20618;0.000;0.000;2023-12-14T03:03:46;8.98;;;3.50;;
34353;SDS011;20618;0.000;0.000;2023-12-14T03:06:12;8.85;;;3.53;;
34353;SDS011;20618;0.000;0.000;2023-12-14T03:08:39;10.93;;;3.30;;
34353;SDS011;20618;0.000;0.000;2023-12-14T03:11:05;10.35;;;3.30;;
34353;SDS011;20618;0.000;0.000;2023-12-14T03:13:31;7.22;;;2.92;;
34353;SDS011;20618;0.000;0.000;2023-12-14T03:15:57;7.32;;;2.90;;
34353;SDS011;20618;0.000;0.000;2023-12-14T03:18:25;8.18;;;3.55;;
34353;SDS011;20618;0.000;0.000;2023-12-14T03:20:51;6.38;;;2.75;;
34353;SDS011;20618;0.000;0.000;2023-12-14T03:23:17;5.68;;;3.03;;
34353;SDS011;20618;0.000;0.000;2023-12-14T03:25:43;7.88;;;3.25;;
34353;SDS011;20618;0.000;0.000;2023-12-14T03:28:09;6.28;;;3.33;;
34353;SDS011;20618;0.000;0.000;2023-12-14T03:30:36;6.80;;;2.92;;
34353;SDS011;20618;0.000;0.000;2023-12-14T03:33:02;8.32;;;3.10;;
34353;SDS011;20618;0.000;0.000;2023-12-14T03:35:30;6.00;;;2.92;;
34353;SDS011;20618;0.000;0.000;2023-12-14T03:37:56;8.63;;;3.05;;
34353;SDS011;20618;0.000;0.000;2023-12-14T03:40:22;6.68;;;3.03;;
34353;SDS011;20618;0.000;0.000;2023-12-14T03:42:48;7.25;;;2.88;;
34353;SDS011;20618;0.000;0.000;2023-12-14T03:45:15;10.52;;;3.50;;
34353;SDS011;20618;0.000;0.000;2023-12-14T03:47:41;5.30;;;2.80;;
34353;SDS011;20618;0.000;0.000;2023-12-14T03:50:07;6.40;;;2.90;;
34353;SDS011;20618;0.000;0.000;2023-12-14T03:52:37;7.05;;;3.50;;
34353;SDS011;20618;0.000;0.000;2023-12-14T03:55:03;8.48;;;3.30;;
34353;SDS011;20618;0.000;0.000;2023-12-14T03:57:29;9.30;;;2.97;;
34353;SDS011;20618;0.000;0.000;2023-12-14T03:59:56;7.55;;;3.13;;
34353;SDS011;20618;0.000;0.000;2023-12-14T04:02:23;6.15;;;3.00;;
34353;SDS011;20618;0.000;0.000;2023-12-14T04:04:49;6.93;;;3.45;;
34353;SDS011;20618;0.000;0.000;2023-12-14T04:07:15;7.65;;;3.20;;
34353;SDS011;20618;0.000;0.000;2023-12-14T04:09:41;6.60;;;3.00;;
34353;SDS011;20618;0.000;0.000;2023-12-14T04:12:07;5.82;;;3.20;;
34353;SDS011;20618;0.000;0.000;2023-12-14T04:14:34;7.70;;;3.10;;
34353;SDS011;20618;0.000;0.000;2023-12-14T04:17:00;6.88;;;2.92;;
34353;SDS011;20618;0.000;0.000;2023-12-14T04:19:26;8.32;;;3.10;;
34353;SDS011;20618;0.000;0.000;2023-12-14T04:21:52;7.32;;;3.55;;
34353;SDS011;20618;0.000;0.000;2023-12-14T04:24:18;7.75;;;3.67;;
34353;SDS011;20618;0.000;0.000;2023-12-14T04:26:47;5.13;;;2.67;;
34353;SDS011;20618;0.000;0.000;2023-12-14T04:29:14;6.22;;;2.72;;
34353;SDS011;20618;0.000;0.000;2023-12-14T04:31:42;5.20;;;3.10;;
34353;SDS011;20618;0.000;0.000;2023-12-14T04:34:08;7.88;;;3.50;;
34353;SDS011;20618;0.000;0.000;2023-12-14T04:36:39;6.03;;;3.00;;
34353;SDS011;20618;0.000;0.000;2023-12-14T04:39:05;7.30;;;2.72;;
34353;SDS011;20618;0.000;0.000;2023-12-14T04:41:34;7.63;;;2.75;;
34353;SDS011;20618;0.000;0.000;2023-12-14T04:44:00;5.55;;;3.20;;
34353;SDS011;20618;0.000;0.000;2023-12-14T04:46:26;6.75;;;3.13;;
34353;SDS011;20618;0.000;0.000;2023-12-14T04:48:53;5.72;;;2.78;;
34353;SDS011;20618;0.000;0.000;2023-12-14T04:51:19;7.18;;;3.08;;
34353;SDS011;20618;0.000;0.000;2023-12-14T04:53:45;8.60;;;3.05;;
34353;SDS011;20618;0.000;0.000;2023-12-14T04:56:12;6.28;;;2.88;;
34353;SDS011;20618;0.000;0.000;2023-12-14T04:58:38;7.32;;;3.03;;
34353;SDS011;20618;0.000;0.000;2023-12-14T05:01:05;7.28;;;3.00;;
34353;SDS011;20618;0.000;0.000;2023-12-14T05:03:31;7.25;;;3.13;;
34353;SDS011;20618;0.000;0.000;2023-12-14T05:05:58;7.57;;;3.15;;
34353;SDS011;20618;0.000;0.000;2023-12-14T05:08:24;5.82;;;3.10;;
34353;SDS011;20618;0.000;0.000;2023-12-14T05:10:50;6.78;;;3.13;;
34353;SDS011;20618;0.000;0.000;2023-12-14T05:13:16;7.43;;;2.83;;
34353;SDS011;20618;0.000;0.000;2023-12-14T05:15:43;6.00;;;3.13;;
34353;SDS011;20618;0.000;0.000;2023-12-14T05:18:09;5.35;;;3.22;;
34353;SDS011;20618;0.000;0.000;2023-12-14T05:20:35;8.82;;;3.15;;
34353;SDS011;20618;0.000;0.000;2023-12-14T05:23:01;6.50;;;2.88;;
34353;SDS011;20618;0.000;0.000;2023-12-14T05:25:28;6.60;;;3.30;;
34353;SDS011;20618;0.000;0.000;2023-12-14T05:27:54;5.03;;;2.90;;
34353;SDS011;20618;0.000;0.000;2023-12-14T05:30:20;5.85;;;3.20;;
34353;SDS011;20618;0.000;0.000;2023-12-14T05:32:46;6.07;;;2.88;;
34353;SDS011;20618;0.000;0.000;2023-12-14T05:35:12;5.70;;;3.00;;
34353;SDS011;20618;0.000;0.000;2023-12-14T05:37:39;6.40;;;3.10;;
34353;SDS011;20618;0.000;0.000;2023-12-14T05:40:07;5.93;;;2.90;;
34353;SDS011;20618;0.000;0.000;2023-12-14T05:42:33;7.22;;;3.30;;
34353;SDS011;20618;0.000;0.000;2023-12-14T05:45:00;6.85;;;2.95;;
34353;SDS011;20618;0.000;0.000;2023-12-14T05:47:26;4.80;;;2.70;;
34353;SDS011;20618;0.000;0.000;2023-12-14T05:49:52;4.82;;;2.80;;
34353;SDS011;20618;0.000;0.000;2023-12-14T05:52:19;6.35;;;3.22;;
34353;SDS011;20618;0.000;0.000;2023-12-14T05:54:45;6.20;;;3.13;;
34353;SDS011;20618;0.000;0.000;2023-12-14T05:57:11;6.90;;;2.72;;
34353;SDS011;20618;0.000;0.000;2023-12-14T05:59:38;9.98;;;3.70;;
34353;SDS011;20618;0.000;0.000;2023-12-14T06:04:38;6.43;;;3.13;;
34353;SDS011;20618;0.000;0.000;2023-12-14T06:07:04;6.78;;;3.08;;
34353;SDS011;20618;0.000;0.000;2023-12-14T06:09:30;4.43;;;2.70;;
34353;SDS011;20618;0.000;0.000;2023-12-14T06:12:00;7.80;;;3.30;;
34353;SDS011;20618;0.000;0.000;2023-12-14T06:14:27;7.10;;;3.10;;
34353;SDS011;20618;0.000;0.000;2023-12-14T06:16:53;5.30;;;3.20;;
34353;SDS011;20618;0.000;0.000;2023-12-14T06:19:19;6.30;;;3.22;;
34353;SDS011;20618;0.000;0.000;2023-12-14T06:21:45;6.10;;;2.60;;
34353;SDS011;20618;0.000;0.000;2023-12-14T06:24:12;5.10;;;2.92;;
34353;SDS011;20618;0.000;0.000;2023-12-14T06:26:41;8.00;;;3.20;;
34353;SDS011;20618;0.000;0.000;2023-12-14T06:29:10;5.70;;;2.97;;
34353;SDS011;20618;0.000;0.000;2023-12-14T06:31:37;6.88;;;2.90;;
34353;SDS011;20618;0.000;0.000;2023-12-14T06:34:04;6.35;;;3.30;;
34353;SDS011;20618;0.000;0.000;2023-12-14T06:36:30;6.93;;;2.92;;
34353;SDS011;20618;0.000;0.000;2023-12-14T06:39:00;4.57;;;2.90;;
34353;SDS011;20618;0.000;0.000;2023-12-14T06:41:27;5.65;;;2.83;;
34353;SDS011;20618;0.000;0.000;2023-12-14T06:43:53;5.47;;;3.00;;
34353;SDS011;20618;0.000;0.000;2023-12-14T06:46:20;5.95;;;2.95;;
34353;SDS011;20618;0.000;0.000;2023-12-14T06:48:46;5.53;;;2.63;;
34353;SDS011;20618;0.000;0.000;2023-12-14T06:51:13;6.38;;;3.22;;
34353;SDS011;20618;0.000;0.000;2023-12-14T06:53:40;5.30;;;2.60;;
34353;SDS011;20618;0.000;0.000;2023-12-14T06:56:06;5.00;;;2.85;;
34353;SDS011;20618;0.000;0.000;2023-12-14T06:58:39;4.45;;;2.50;;
34353;SDS011;20618;0.000;0.000;2023-12-14T07:01:06;5.57;;;3.10;;
34353;SDS011;20618;0.000;0.000;2023-12-14T07:03:32;5.32;;;2.70;;
34353;SDS011;20618;0.000;0.000;2023-12-14T07:05:58;4.32;;;2.28;;
34353;SDS011;20618;0.000;0.000;2023-12-14T07:08:25;5.97;;;2.80;;
34353;SDS011;20618;0.000;0.000;2023-12-14T07:10:51;5.35;;;2.72;;
34353;SDS011;20618;0.000;0.000;2023-12-14T07:13:17;5.43;;;2.63;;
34353;SDS011;20618;0.000;0.000;2023-12-14T07:15:43;7.40;;;2.70;;
34353;SDS011;20618;0.000;0.000;2023-12-14T07:18:09;5.63;;;2.70;;
34353;SDS011;20618;0.000;0.000;2023-12-14T07:20:35;5.32;;;3.05;;
34353;SDS011;20618;0.000;0.000;2023-12-14T07:23:01;6.40;;;3.22;;
34353;SDS011;20618;0.000;0.000;2023-12-14T07:25:28;5.50;;;3.13;;
34353;SDS011;20618;0.000;0.000;2023-12-14T07:27:54;6.50;;;3.00;;
34353;SDS011;20618;0.000;0.000;2023-12-14T07:30:20;6.88;;;3.38;;
34353;SDS011;20618;0.000;0.000;2023-12-14T07:32:46;9.88;;;3.60;;
34353;SDS011;20618;0.000;0.000;2023-12-14T07:35:12;6.13;;;2.60;;
34353;SDS011;20618;0.000;0.000;2023-12-14T07:37:39;9.27;;;2.90;;
34353;SDS011;20618;0.000;0.000;2023-12-14T07:40:05;5.47;;;2.72;;
34353;SDS011;20618;0.000;0.000;2023-12-14T07:42:31;6.75;;;2.88;;
34353;SDS011;20618;0.000;0.000;2023-12-14T07:44:58;9.55;;;3.50;;
34353;SDS011;20618;0.000;0.000;2023-12-14T07:47:24;6.78;;;3.28;;
34353;SDS011;20618;0.000;0.000;2023-12-14T07:49:50;6.75;;;2.67;;
34353;SDS011;20618;0.000;0.000;2023-12-14T07:52:17;5.55;;;2.63;;
34353;SDS011;20618;0.000;0.000;2023-12-14T07:54:43;7.22;;;2.90;;
34353;SDS011;20618;0.000;0.000;2023-12-14T07:57:09;7.03;;;2.63;;
34353;SDS011;20618;0.000;0.000;2023-12-14T07:59:36;7.25;;;3.10;;
34353;SDS011;20618;0.000;0.000;2023-12-14T08:02:02;11.23;;;3.10;;
34353;SDS011;20618;0.000;0.000;2023-12-14T08:04:28;11.05;;;2.92;;
34353;SDS011;20618;0.000;0.000;2023-12-14T08:06:54;9.25;;;2.85;;
34353;SDS011;20618;0.000;0.000;2023-12-14T08:09:21;10.07;;;3.17;;
34353;SDS011;20618;0.000;0.000;2023-12-14T08:11:47;11.18;;;3.28;;
34353;SDS011;20618;0.000;0.000;2023-12-14T08:14:15;15.02;;;3.30;;
34353;SDS011;20618;0.000;0.000;2023-12-14T08:16:41;9.75;;;3.05;;
34353;SDS011;20618;0.000;0.000;2023-12-14T08:19:07;9.55;;;3.13;;
34353;SDS011;20618;0.000;0.000;2023-12-14T08:21:33;14.20;;;3.10;;
34353;SDS011;20618;0.000;0.000;2023-12-14T08:23:59;7.38;;;3.08;;
34353;SDS011;20618;0.000;0.000;2023-12-14T08:26:25;9.45;;;3.00;;
34353;SDS011;20618;0.000;0.000;2023-12-14T08:28:52;9.70;;;3.28;;
34353;SDS011;20618;0.000;0.000;2023-12-14T08:31:18;19.95;;;3.50;;
34353;SDS011;20618;0.000;0.000;2023-12-14T08:33:44;16.15;;;3.22;;
34353;SDS011;20618;0.000;0.000;2023-12-14T08:36:10;8.55;;;2.75;;
34353;SDS011;20618;0.000;0.000;2023-12-14T08:38:40;13.45;;;3.38;;
34353;SDS011;20618;0.000;0.000;2023-12-14T08:41:06;10.75;;;2.63;;
34353;SDS011;20618;0.000;0.000;2023-12-14T08:43:32;12.43;;;3.72;;
34353;SDS011;20618;0.000;0.000;2023-12-14T08:45:59;13.52;;;3.70;;
34353;SDS011;20618;0.000;0.000;2023-12-14T08:48:25;12.85;;;3.58;;
34353;SDS011;20618;0.000;0.000;2023-12-14T08:50:53;18.02;;;4.03;;
34353;SDS011;20618;0.000;0.000;2023-12-14T08:53:20;18.63;;;4.10;;
34353;SDS011;20618;0.000;0.000;2023-12-14T08:55:46;14.90;;;3.95;;
34353;SDS011;20618;0.000;0.000;2023-12-14T08:58:12;9.85;;;3.75;;
34353;SDS011;20618;0.000;0.000;2023-12-14T09:00:39;13.07;;;3.45;;
34353;SDS011;20618;0.000;0.000;2023-12-14T09:03:05;18.95;;;3.80;;
34353;SDS011;20618;0.000;0.000;2023-12-14T09:05:31;23.17;;;4.43;;
34353;SDS011;20618;0.000;0.000;2023-12-14T09:07:57;22.80;;;4.25;;
34353;SDS011;20618;0.000;0.000;2023-12-14T09:10:24;14.80;;;3.28;;
34353;SDS011;20618;0.000;0.000;2023-12-14T09:12:50;15.15;;;3.80;;
34353;SDS011;20618;0.000;0.000;2023-12-14T09:15:17;13.10;;;3.40;;
34353;SDS011;20618;0.000;0.000;2023-12-14T09:17:43;16.33;;;4.10;;
34353;SDS011;20618;0.000;0.000;2023-12-14T09:20:09;8.85;;;3.30;;
34353;SDS011;20618;0.000;0.000;2023-12-14T09:22:36;12.45;;;3.75;;
34353;SDS011;20618;0.000;0.000;2023-12-14T09:25:02;18.48;;;4.07;;
34353;SDS011;20618;0.000;0.000;2023-12-14T09:27:29;15.10;;;3.17;;
34353;SDS011;20618;0.000;0.000;2023-12-14T09:29:55;13.70;;;3.88;;
34353;SDS011;20618;0.000;0.000;2023-12-14T09:32:21;14.07;;;3.28;;
34353;SDS011;20618;0.000;0.000;2023-12-14T09:34:47;11.15;;;3.33;;
34353;SDS011;20618;0.000;0.000;2023-12-14T09:37:14;11.95;;;3.70;;
34353;SDS011;20618;0.000;0.000;2023-12-14T09:39:40;10.60;;;3.10;;
34353;SDS011;20618;0.000;0.000;2023-12-14T09:42:07;14.75;;;3.63;;
34353;SDS011;20618;0.000;0.000;2023-12-14T09:44:33;18.15;;;3.80;;
34353;SDS011;20618;0.000;0.000;2023-12-14T09:47:00;16.25;;;4.60;;
34353;SDS011;20618;0.000;0.000;2023-12-14T09:49:28;15.75;;;3.72;;
34353;SDS011;20618;0.000;0.000;2023-12-14T09:51:58;13.27;;;3.47;;
34353;SDS011;20618;0.000;0.000;2023-12-14T09:54:26;12.57;;;3.55;;
34353;SDS011;20618;0.000;0.000;2023-12-14T09:56:52;15.95;;;4.05;;
34353;SDS011;20618;0.000;0.000;2023-12-14T09:59:19;15.18;;;3.42;;
34353;SDS011;20618;0.000;0.000;2023-12-14T10:01:45;15.73;;;3.47;;
34353;SDS011;20618;0.000;0.000;2023-12-14T10:04:12;13.82;;;4.10;;
34353;SDS011;20618;0.000;0.000;2023-12-14T10:06:39;12.73;;;3.47;;
34353;SDS011;20618;0.000;0.000;2023-12-14T10:09:06;18.80;;;3.83;;
34353;SDS011;20618;0.000;0.000;2023-12-14T10:11:41;22.23;;;3.97;;
34353;SDS011;20618;0.000;0.000;2023-12-14T10:14:17;15.57;;;4.05;;
34353;SDS011;20618;0.000;0.000;2023-12-14T10:16:44;20.35;;;4.05;;
34353;SDS011;20618;0.000;0.000;2023-12-14T10:19:10;16.85;;;3.95;;
34353;SDS011;20618;0.000;0.000;2023-12-14T10:21:37;20.65;;;4.18;;
34353;SDS011;20618;0.000;0.000;2023-12-14T10:24:03;20.52;;;4.13;;
34353;SDS011;20618;0.000;0.000;2023-12-14T10:26:31;18.85;;;4.60;;
34353;SDS011;20618;0.000;0.000;2023-12-14T10:28:57;29.98;;;4.97;;
34353;SDS011;20618;0.000;0.000;2023-12-14T10:31:23;21.35;;;4.85;;
34353;SDS011;20618;0.000;0.000;2023-12-14T10:33:51;22.88;;;4.65;;
34353;SDS011;20618;0.000;0.000;2023-12-14T10:36:21;21.17;;;4.25;;
34353;SDS011;20618;0.000;0.000;2023-12-14T10:38:51;14.80;;;4.07;;
34353;SDS011;20618;0.000;0.000;2023-12-14T10:41:18;21.05;;;4.80;;
34353;SDS011;20618;0.000;0.000;2023-12-14T10:43:44;23.20;;;4.72;;
34353;SDS011;20618;0.000;0.000;2023-12-14T10:46:12;19.63;;;4.80;;
34353;SDS011;20618;0.000;0.000;2023-12-14T10:48:39;23.33;;;4.35;;
34353;SDS011;20618;0.000;0.000;2023-12-14T10:51:10;19.80;;;3.90;;
34353;SDS011;20618;0.000;0.000;2023-12-14T10:53:37;18.15;;;4.05;;
34353;SDS011;20618;0.000;0.000;2023-12-14T10:56:07;15.75;;;3.55;;
34353;SDS011;20618;0.000;0.000;2023-12-14T11:01:34;28.45;;;4.68;;
34353;SDS011;20618;0.000;0.000;2023-12-14T11:04:05;21.25;;;3.90;;
34353;SDS011;20618;0.000;0.000;2023-12-14T11:06:38;13.65;;;3.80;;
34353;SDS011;20618;0.000;0.000;2023-12-14T11:09:05;19.92;;;4.32;;
34353;SDS011;20618;0.000;0.000;2023-12-14T11:11:39;17.30;;;4.22;;
34353;SDS011;20618;0.000;0.000;2023-12-14T11:14:07;20.50;;;4.00;;
34353;SDS011;20618;0.000;0.000;2023-12-14T11:16:34;21.73;;;4.75;;
34353;SDS011;20618;0.000;0.000;2023-12-14T11:21:44;22.77;;;4.97;;
34353;SDS011;20618;0.000;0.000;2023-12-14T11:24:11;24.35;;;4.72;;
34353;SDS011;20618;0.000;0.000;2023-12-14T11:26:37;29.02;;;4.50;;
34353;SDS011;20618;0.000;0.000;2023-12-14T11:29:04;24.23;;;4.03;;
34353;SDS011;20618;0.000;0.000;2023-12-14T11:31:30;22.90;;;4.38;;
34353;SDS011;20618;0.000;0.000;2023-12-14T11:33:58;24.52;;;4.95;;
34353;SDS011;20618;0.000;0.000;2023-12-14T11:36:25;27.30;;;4.80;;
34353;SDS011;20618;0.000;0.000;2023-12-14T11:38:52;17.92;;;4.18;;
34353;SDS011;20618;0.000;0.000;2023-12-14T11:41:22;20.70;;;4.70;;
34353;SDS011;20618;0.000;0.000;2023-12-14T11:43:50;20.58;;;4.30;;
34353;SDS011;20618;0.000;0.000;2023-12-14T11:46:16;20.55;;;4.88;;
34353;SDS011;20618;0.000;0.000;2023-12-14T11:48:44;24.65;;;4.57;;
34353;SDS011;20618;0.000;0.000;2023-12-14T11:51:14;20.13;;;4.88;;
34353;SDS011;20618;0.000;0.000;2023-12-14T11:53:46;20.55;;;4.72;;
34353;SDS011;20618;0.000;0.000;2023-12-14T11:56:18;15.43;;;4.32;;
34353;SDS011;20618;0.000;0.000;2023-12-14T11:58:45;23.23;;;5.10;;
34353;SDS011;20618;0.000;0.000;2023-12-14T12:01:13;23.73;;;5.25;;
34353;SDS011;20618;0.000;0.000;2023-12-14T12:03:39;18.77;;;4.55;;
34353;SDS011;20618;0.000;0.000;2023-12-14T12:06:05;18.90;;;4.68;;
34353;SDS011;20618;0.000;0.000;2023-12-14T12:08:32;21.30;;;5.15;;
34353;SDS011;20618;0.000;0.000;2023-12-14T12:11:07;19.25;;;4.35;;
34353;SDS011;20618;0.000;0.000;2023-12-14T12:13:34;19.58;;;4.97;;
34353;SDS011;20618;0.000;0.000;2023-12-14T12:16:00;19.73;;;4.53;;
34353;SDS011;20618;0.000;0.000;2023-12-14T12:18:26;21.67;;;4.53;;
34353;SDS011;20618;0.000;0.000;2023-12-14T12:20:53;49.92;;;6.80;;
34353;SDS011;20618;0.000;0.000;2023-12-14T12:23:19;19.20;;;4.40;;
34353;SDS011;20618;0.000;0.000;2023-12-14T12:25:45;23.80;;;4.45;;
34353;SDS011;20618;0.000;0.000;2023-12-14T12:28:11;18.77;;;4.22;;
34353;SDS011;20618;0.000;0.000;2023-12-14T12:30:37;22.05;;;4.28;;
34353;SDS011;20618;0.000;0.000;2023-12-14T12:33:03;24.83;;;4.25;;
34353;SDS011;20618;0.000;0.000;2023-12-14T12:35:30;24.40;;;4.95;;
34353;SDS011;20618;0.000;0.000;2023-12-14T12:37:58;24.98;;;4.25;;
34353;SDS011;20618;0.000;0.000;2023-12-14T12:40:24;25.90;;;4.25;;
34353;SDS011;20618;0.000;0.000;2023-12-14T12:42:55;25.15;;;4.72;;
34353;SDS011;20618;0.000;0.000;2023-12-14T12:45:21;17.58;;;5.18;;
34353;SDS011;20618;0.000;0.000;2023-12-14T12:47:50;21.30;;;4.93;;
34353;SDS011;20618;0.000;0.000;2023-12-14T12:50:17;23.30;;;5.38;;
34353;SDS011;20618;0.000;0.000;2023-12-14T12:52:43;22.17;;;4.05;;
34353;SDS011;20618;0.000;0.000;2023-12-14T12:55:11;22.83;;;4.65;;
34353;SDS011;20618;0.000;0.000;2023-12-14T12:57:37;17.13;;;4.55;;
34353;SDS011;20618;0.000;0.000;2023-12-14T13:00:03;18.95;;;4.13;;
34353;SDS011;20618;0.000;0.000;2023-12-14T13:02:32;12.77;;;4.10;;
34353;SDS011;20618;0.000;0.000;2023-12-14T13:04:59;16.65;;;4.28;;
34353;SDS011;20618;0.000;0.000;2023-12-14T13:07:25;21.80;;;3.97;;
34353;SDS011;20618;0.000;0.000;2023-12-14T13:09:51;25.67;;;5.22;;
34353;SDS011;20618;0.000;0.000;2023-12-14T13:12:18;18.33;;;4.53;;
34353;SDS011;20618;0.000;0.000;2023-12-14T13:14:44;21.08;;;4.65;;
34353;SDS011;20618;0.000;0.000;2023-12-14T13:17:10;16.73;;;4.75;;
34353;SDS011;20618;0.000;0.000;2023-12-14T13:19:36;22.95;;;5.25;;
34353;SDS011;20618;0.000;0.000;2023-12-14T13:22:02;25.38;;;4.85;;
34353;SDS011;20618;0.000;0.000;2023-12-14T13:24:29;23.40;;;4.88;;
34353;SDS011;20618;0.000;0.000;2023-12-14T13:26:56;26.02;;;5.28;;
34353;SDS011;20618;0.000;0.000;2023-12-14T13:29:22;20.08;;;4.20;;
34353;SDS011;20618;0.000;0.000;2023-12-14T13:31:48;29.95;;;4.90;;
34353;SDS011;20618;0.000;0.000;2023-12-14T13:34:14;28.98;;;5.10;;
34353;SDS011;20618;0.000;0.000;2023-12-14T13:36:40;26.30;;;4.70;;
34353;SDS011;20618;0.000;0.000;2023-12-14T13:39:06;26.45;;;4.93;;
34353;SDS011;20618;0.000;0.000;2023-12-14T13:41:33;22.35;;;4.38;;
34353;SDS011;20618;0.000;0.000;2023-12-14T13:44:00;17.58;;;4.25;;
34353;SDS011;20618;0.000;0.000;2023-12-14T13:46:27;18.50;;;4.65;;
34353;SDS011;20618;0.000;0.000;2023-12-14T13:48:53;25.38;;;5.30;;
34353;SDS011;20618;0.000;0.000;2023-12-14T13:51:19;29.25;;;5.13;;
34353;SDS011;20618;0.000;0.000;2023-12-14T13:53:45;27.38;;;5.07;;
34353;SDS011;20618;0.000;0.000;2023-12-14T13:56:12;24.33;;;4.63;;
34353;SDS011;20618;0.000;0.000;2023-12-14T13:58:38;19.65;;;4.53;;
34353;SDS011;20618;0.000;0.000;2023-12-14T14:01:07;40.30;;;5.43;;
34353;SDS011;20618;0.000;0.000;2023-12-14T14:03:34;30.38;;;5.35;;
34353;SDS011;20618;0.000;0.000;2023-12-14T14:06:01;24.05;;;4.93;;
34353;SDS011;20618;0.000;0.000;2023-12-14T14:08:27;32.65;;;5.13;;
34353;SDS011;20618;0.000;0.000;2023-12-14T14:10:54;30.15;;;4.93;;
34353;SDS011;20618;0.000;0.000;2023-12-14T14:13:20;27.58;;;5.00;;
34353;SDS011;20618;0.000;0.000;2023-12-14T14:15:46;30.17;;;5.45;;
34353;SDS011;20618;0.000;0.000;2023-12-14T14:18:13;29.35;;;5.45;;
34353;SDS011;20618;0.000;0.000;2023-12-14T14:20:39;24.25;;;4.90;;
34353;SDS011;20618;0.000;0.000;2023-12-14T14:23:05;21.33;;;4.45;;
34353;SDS011;20618;0.000;0.000;2023-12-14T14:25:31;29.00;;;4.53;;
34353;SDS011;20618;0.000;0.000;2023-12-14T14:27:59;25.27;;;4.95;;
34353;SDS011;20618;0.000;0.000;2023-12-14T14:30:25;28.98;;;4.78;;
34353;SDS011;20618;0.000;0.000;2023-12-14T14:32:51;31.35;;;5.45;;
34353;SDS011;20618;0.000;0.000;2023-12-14T14:35:18;24.08;;;5.05;;
34353;SDS011;20618;0.000;0.000;2023-12-14T14:37:44;23.77;;;5.07;;
34353;SDS011;20618;0.000;0.000;2023-12-14T14:40:11;26.17;;;4.93;;
34353;SDS011;20618;0.000;0.000;2023-12-14T14:42:39;23.42;;;4.68;;
34353;SDS011;20618;0.000;0.000;2023-12-14T14:45:06;31.58;;;5.30;;
34353;SDS011;20618;0.000;0.000;2023-12-14T14:47:32;22.90;;;4.75;;
34353;SDS011;20618;0.000;0.000;2023-12-14T14:49:59;23.25;;;5.03;;
34353;SDS011;20618;0.000;0.000;2023-12-14T14:52:29;28.75;;;5.72;;
34353;SDS011;20618;0.000;0.000;2023-12-14T14:54:55;22.40;;;4.72;;
34353;SDS011;20618;0.000;0.000;2023-12-14T14:57:22;23.35;;;4.80;;